createdAt,value
2022-09-23T00:01:19.210Z,101746.06
2022-09-23T00:03:47.613Z,101741.72
2022-09-23T00:06:17.130Z,101742.16
2022-09-23T00:08:45.179Z,101747.22
2022-09-23T00:11:14.986Z,101738.13
2022-09-23T00:13:44.534Z,101738.25
2022-09-23T00:16:16.191Z,101737.19
2022-09-23T00:18:44.683Z,101736.97
2022-09-23T00:21:14.677Z,101732.09
2022-09-23T00:23:43.977Z,101728.50
2022-09-23T00:26:14.014Z,101723.41
2022-09-23T00:28:41.953Z,101721.03
2022-09-23T00:31:11.748Z,101722.00
2022-09-23T00:33:41.245Z,101721.94
2022-09-23T00:36:11.391Z,101718.69
2022-09-23T00:38:39.862Z,101712.06
2022-09-23T00:41:07.964Z,101708.06
2022-09-23T00:43:40.553Z,101713.13
2022-09-23T00:46:10.072Z,101707.31
2022-09-23T00:48:40.944Z,101701.53
2022-09-23T00:51:10.928Z,101700.38
2022-09-23T00:53:39.462Z,101696.97
2022-09-23T00:56:09.645Z,101698.28
2022-09-23T00:58:41.185Z,101696.16
2022-09-23T01:01:09.136Z,101694.38
2022-09-23T01:03:37.115Z,101689.84
2022-09-23T01:06:07.203Z,101693.41
2022-09-23T01:08:35.179Z,101693.84
2022-09-23T01:11:11.498Z,101687.13
2022-09-23T01:13:48.024Z,101687.13
2022-09-23T01:16:20.484Z,101675.56
2022-09-23T01:18:53.195Z,101679.22
2022-09-23T01:21:35.166Z,101679.66
2022-09-23T01:24:47.637Z,101672.44
2022-09-23T01:27:28.894Z,101657.06
2022-09-23T01:30:14.587Z,101663.75
2022-09-23T01:32:56.089Z,101660.63
2022-09-23T01:35:30.512Z,101660.28
2022-09-23T01:38:04.422Z,101658.88
2022-09-23T01:40:36.985Z,101662.78
2022-09-23T01:43:08.763Z,101656.28
2022-09-23T01:45:40.341Z,101659.94
2022-09-23T01:48:15.106Z,101657.47
2022-09-23T01:50:58.226Z,101654.75
2022-09-23T01:53:33.334Z,101655.09
2022-09-23T01:56:04.294Z,101652.50
2022-09-23T01:58:36.761Z,101645.97
2022-09-23T02:01:07.234Z,101641.97
2022-09-23T02:03:41.265Z,101638.19
2022-09-23T02:06:12.306Z,101642.84
2022-09-23T02:08:44.319Z,101646.09
2022-09-23T02:11:13.897Z,101637.09
2022-09-23T02:13:46.889Z,101632.44
2022-09-23T02:16:18.225Z,101632.22
2022-09-23T02:18:50.106Z,101635.53
2022-09-23T02:21:19.171Z,101622.41
2022-09-23T02:23:51.673Z,101631.00
2022-09-23T02:26:22.274Z,101625.97
2022-09-23T02:28:56.750Z,101620.13
2022-09-23T02:31:31.862Z,101625.00
2022-09-23T02:34:04.202Z,101619.56
2022-09-23T02:36:34.745Z,101620.66
2022-09-23T02:39:05.066Z,101623.03
2022-09-23T02:41:37.784Z,101610.03
2022-09-23T02:44:08.523Z,101612.97
2022-09-23T02:46:37.061Z,101616.94
2022-09-23T02:49:11.270Z,101618.56
2022-09-23T02:51:39.402Z,101622.81
2022-09-23T02:54:10.302Z,101617.44
2022-09-23T02:56:39.182Z,101611.84
2022-09-23T02:59:07.211Z,101609.22
2022-09-23T03:01:41.712Z,101610.97
2022-09-23T03:04:17.425Z,101611.19
2022-09-23T03:06:54.237Z,101608.50
2022-09-23T03:09:26.021Z,101602.81
2022-09-23T03:11:59.252Z,101597.91
2022-09-23T03:14:31.689Z,101595.00
2022-09-23T03:17:04.375Z,101599.84
2022-09-23T03:19:36.630Z,101594.38
2022-09-23T03:22:08.174Z,101588.63
2022-09-23T03:24:38.029Z,101591.75
2022-09-23T03:27:11.838Z,101583.41
2022-09-23T03:29:40.091Z,101582.00
2022-09-23T03:32:08.401Z,101575.91
2022-09-23T03:34:38.769Z,101577.94
2022-09-23T03:37:12.376Z,101576.09
2022-09-23T03:39:42.197Z,101570.09
2022-09-23T03:42:16.782Z,101576.44
2022-09-23T03:44:45.638Z,101575.50
2022-09-23T03:47:14.817Z,101575.50
2022-09-23T03:49:46.029Z,101563.97
2022-09-23T03:52:13.927Z,101566.88
2022-09-23T03:54:41.933Z,101573.13
2022-09-23T03:57:11.205Z,101563.63
2022-09-23T03:59:39.403Z,101563.84
2022-09-23T04:02:08.335Z,101563.63
2022-09-23T04:04:38.891Z,101558.41
2022-09-23T04:07:08.350Z,101552.66
2022-09-23T04:09:36.488Z,101550.34
2022-09-23T04:12:04.758Z,101555.91
2022-09-23T04:14:32.959Z,101547.28
2022-09-23T04:17:00.940Z,101536.81
2022-09-23T04:19:28.881Z,101533.34
2022-09-23T04:21:56.781Z,101537.13
2022-09-23T04:24:26.176Z,101541.00
2022-09-23T04:26:55.083Z,101539.81
2022-09-23T04:29:23.487Z,101534.63
2022-09-23T04:31:52.063Z,101528.81
2022-09-23T04:34:20.261Z,101526.44
2022-09-23T04:36:49.465Z,101532.19
2022-09-23T04:39:18.140Z,101524.16
2022-09-23T04:41:47.702Z,101529.91
2022-09-23T04:44:16.166Z,101521.78
2022-09-23T04:46:47.478Z,101517.97
2022-09-23T04:49:15.907Z,101524.78
2022-09-23T04:51:44.210Z,101523.41
2022-09-23T04:54:14.342Z,101520.69
2022-09-23T04:56:42.371Z,101514.81
2022-09-23T04:59:11.665Z,101510.75
2022-09-23T05:01:39.804Z,101517.72
2022-09-23T05:04:14.365Z,101510.84
2022-09-23T05:06:45.288Z,101510.16
2022-09-23T05:09:17.364Z,101509.19
2022-09-23T05:11:46.173Z,101506.72
2022-09-23T05:14:15.592Z,101508.25
2022-09-23T05:16:43.792Z,101505.31
2022-09-23T05:19:13.483Z,101505.66
2022-09-23T05:21:41.417Z,101507.25
2022-09-23T05:24:09.836Z,101503.41
2022-09-23T05:26:38.347Z,101505.78
2022-09-23T05:29:06.472Z,101516.56
2022-09-23T05:31:36.737Z,101509.31
2022-09-23T05:34:06.137Z,101508.75
2022-09-23T05:36:38.426Z,101510.09
2022-09-23T05:39:07.748Z,101507.06
2022-09-23T05:41:36.051Z,101501.78
2022-09-23T05:44:04.225Z,101501.19
2022-09-23T05:46:33.254Z,101508.13
2022-09-23T05:49:04.185Z,101508.16
2022-09-23T05:51:34.750Z,101511.94
2022-09-23T05:54:04.307Z,101503.94
2022-09-23T05:56:33.720Z,101508.16
2022-09-23T05:59:03.030Z,101499.94
2022-09-23T06:01:33.992Z,101505.66
2022-09-23T06:04:05.549Z,101503.06
2022-09-23T06:06:35.187Z,101500.91
2022-09-23T06:09:03.841Z,101501.13
2022-09-23T06:11:32.945Z,101501.72
2022-09-23T06:14:02.229Z,101500.88
2022-09-23T06:16:32.235Z,101506.53
2022-09-23T06:19:05.840Z,101497.94
2022-09-23T06:21:37.785Z,101501.84
2022-09-23T06:24:06.676Z,101496.97
2022-09-23T06:26:35.278Z,101495.34
2022-09-23T06:29:04.334Z,101502.59
2022-09-23T06:31:33.022Z,101498.06
2022-09-23T06:34:12.176Z,101499.38
2022-09-23T06:36:45.033Z,101498.94
2022-09-23T06:39:14.167Z,101504.78
2022-09-23T06:41:42.083Z,101504.78
2022-09-23T06:44:09.996Z,101506.84
2022-09-23T06:46:38.275Z,101518.63
2022-09-23T06:49:06.266Z,101514.19
2022-09-23T06:51:34.634Z,101509.22
2022-09-23T06:54:04.181Z,101513.75
2022-09-23T06:56:37.816Z,101511.06
2022-09-23T06:59:07.353Z,101514.22
2022-09-23T07:01:35.719Z,101515.75
2022-09-23T07:04:03.817Z,101513.34
2022-09-23T07:06:31.966Z,101512.56
2022-09-23T07:09:01.014Z,101516.97
2022-09-23T07:11:30.374Z,101516.66
2022-09-23T07:13:58.497Z,101516.41
2022-09-23T07:16:26.728Z,101514.84
2022-09-23T07:18:54.792Z,101519.53
2022-09-23T07:21:22.721Z,101516.78
2022-09-23T07:23:51.962Z,101512.06
2022-09-23T07:26:21.485Z,101513.59
2022-09-23T07:28:55.025Z,101525.66
2022-09-23T07:31:36.617Z,101521.03
2022-09-23T07:34:06.151Z,101520.06
2022-09-23T07:36:37.480Z,101522.69
2022-09-23T07:39:05.815Z,101529.25
2022-09-23T07:41:34.622Z,101522.00
2022-09-23T07:44:06.330Z,101517.31
2022-09-23T07:46:37.198Z,101518.69
2022-09-23T07:49:06.378Z,101522.63
2022-09-23T07:51:36.905Z,101522.75
2022-09-23T07:54:08.024Z,101522.31
2022-09-23T07:56:36.892Z,101520.81
2022-09-23T07:59:08.705Z,101510.69
2022-09-23T08:01:39.442Z,101512.28
2022-09-23T08:04:09.092Z,101516.75
2022-09-23T08:06:37.083Z,101514.28
2022-09-23T08:09:05.200Z,101514.63
2022-09-23T08:11:33.153Z,101506.72
2022-09-23T08:14:01.106Z,101509.63
2022-09-23T08:16:30.517Z,101511.44
2022-09-23T08:18:58.487Z,101512.63
2022-09-23T08:21:26.454Z,101509.19
2022-09-23T08:23:54.502Z,101509.91
2022-09-23T08:26:22.657Z,101512.22
2022-09-23T08:28:50.989Z,101512.41
2022-09-23T08:31:18.960Z,101516.78
2022-09-23T08:33:48.433Z,101513.34
2022-09-23T08:36:16.297Z,101509.06
2022-09-23T08:38:44.235Z,101515.16
2022-09-23T08:41:17.866Z,101508.06
2022-09-23T08:43:49.849Z,101502.28
2022-09-23T08:46:23.709Z,101504.94
2022-09-23T08:48:53.054Z,101501.69
2022-09-23T08:51:25.459Z,101493.63
2022-09-23T08:53:53.742Z,101494.66
2022-09-23T08:56:24.246Z,101491.81
2022-09-23T08:59:00.154Z,101501.09
2022-09-23T09:01:33.526Z,101489.16
2022-09-23T09:04:06.535Z,101485.75
2022-09-23T09:06:52.258Z,101486.06
2022-09-23T09:09:24.917Z,101483.44
2022-09-23T09:11:58.154Z,101480.84
2022-09-23T09:14:28.301Z,101473.25
2022-09-23T09:17:00.596Z,101479.06
2022-09-23T09:19:55.405Z,101476.94
2022-09-23T09:25:19.730Z,101481.50
2022-09-23T09:27:47.791Z,101476.88
2022-09-23T09:30:16.078Z,101473.03
2022-09-23T09:32:48.334Z,101467.19
2022-09-23T09:35:26.852Z,101465.28
2022-09-23T09:37:55.990Z,101453.00
2022-09-23T09:40:23.999Z,101454.88
2022-09-23T09:42:52.046Z,101457.78
2022-09-23T09:45:27.471Z,101461.59
2022-09-23T09:48:02.441Z,101452.22
2022-09-23T09:50:47.198Z,101447.63
2022-09-23T09:53:23.871Z,101446.88
2022-09-23T09:56:05.205Z,101432.09
2022-09-23T09:58:41.688Z,101442.09
2022-09-23T10:01:10.072Z,101435.53
2022-09-23T10:03:42.478Z,101429.47
2022-09-23T10:06:24.390Z,101433.25
2022-09-23T10:09:19.581Z,101434.53
2022-09-23T10:12:11.826Z,101431.41
2022-09-23T10:14:39.722Z,101428.81
2022-09-23T10:17:10.266Z,101435.25
2022-09-23T10:19:39.654Z,101429.44
2022-09-23T10:22:20.751Z,101423.25
2022-09-23T10:24:50.651Z,101425.56
2022-09-23T10:27:27.953Z,101424.38
2022-09-23T10:29:58.206Z,101425.81
2022-09-23T10:32:28.656Z,101424.16
2022-09-23T10:34:59.498Z,101420.53
2022-09-23T10:37:33.743Z,101425.75
2022-09-23T10:40:19.907Z,101423.28
2022-09-23T10:43:23.055Z,101419.69
2022-09-23T10:46:08.535Z,101423.22
2022-09-23T10:48:46.361Z,101422.13
2022-09-23T10:51:22.678Z,101422.44
2022-09-23T10:54:02.676Z,101414.97
2022-09-23T10:56:35.962Z,101417.47
2022-09-23T10:59:30.840Z,101413.50
2022-09-23T11:02:06.150Z,101406.78
2022-09-23T11:05:07.569Z,101411.09
2022-09-23T11:07:40.335Z,101405.13
2022-09-23T11:10:45.622Z,101398.53
2022-09-23T11:13:20.545Z,101405.00
2022-09-23T11:15:55.347Z,101395.78
2022-09-23T11:18:45.629Z,101396.47
2022-09-23T11:21:32.728Z,101391.59
2022-09-23T11:24:28.118Z,101391.31
2022-09-23T11:27:05.390Z,101387.03
2022-09-23T11:29:53.331Z,101380.69
2022-09-23T11:32:39.625Z,101381.81
2022-09-23T11:35:16.308Z,101374.16
2022-09-23T11:37:46.492Z,101372.13
2022-09-23T11:40:19.167Z,101370.53
2022-09-23T11:42:54.913Z,101370.09
2022-09-23T11:45:25.374Z,101366.50
2022-09-23T11:47:57.251Z,101369.28
2022-09-23T11:50:29.742Z,101367.09
2022-09-23T11:53:02.621Z,101353.81
2022-09-23T11:55:34.987Z,101352.66
2022-09-23T11:58:17.774Z,101351.69
2022-09-23T12:00:56.540Z,101351.34
2022-09-23T12:03:43.553Z,101335.75
2022-09-23T12:06:16.269Z,101343.22
2022-09-23T12:08:44.637Z,101349.34
2022-09-23T12:11:22.618Z,101348.06
2022-09-23T12:13:57.628Z,101343.94
2022-09-23T12:16:53.921Z,101336.72
2022-09-23T12:19:34.269Z,101334.63
2022-09-23T12:22:14.771Z,101330.38
2022-09-23T12:24:48.603Z,101323.06
2022-09-23T12:27:24.022Z,101327.84
2022-09-23T12:29:57.149Z,101329.56
2022-09-23T12:32:26.485Z,101327.69
2022-09-23T12:34:55.170Z,101318.25
2022-09-23T12:37:28.947Z,101322.66
2022-09-23T12:40:01.390Z,101320.63
2022-09-23T12:42:31.240Z,101319.31
2022-09-23T12:45:20.129Z,101315.38
2022-09-23T12:47:48.030Z,101313.47
2022-09-23T12:50:50.946Z,101308.31
2022-09-23T12:53:52.057Z,101308.59
2022-09-23T12:56:21.962Z,101304.69
2022-09-23T12:59:13.997Z,101303.69
2022-09-23T13:01:44.383Z,101296.31
2022-09-23T13:04:45.906Z,101304.75
2022-09-23T13:07:16.571Z,101304.38
2022-09-23T13:09:48.275Z,101299.75
2022-09-23T13:12:21.105Z,101289.63
2022-09-23T13:14:51.617Z,101292.38
2022-09-23T13:17:27.467Z,101296.63
2022-09-23T13:20:06.742Z,101301.44
2022-09-23T13:22:43.206Z,101296.47
2022-09-23T13:25:20.653Z,101297.50
2022-09-23T13:27:53.246Z,101289.13
2022-09-23T13:30:26.382Z,101280.22
2022-09-23T13:33:07.870Z,101285.19
2022-09-23T13:35:37.850Z,101273.34
2022-09-23T13:38:12.961Z,101275.06
2022-09-23T13:40:42.560Z,101271.44
2022-09-23T13:43:15.718Z,101277.78
2022-09-23T13:45:44.188Z,101271.75
2022-09-23T13:48:16.035Z,101267.81
2022-09-23T13:50:46.647Z,101263.91
2022-09-23T13:53:21.345Z,101258.56
2022-09-23T13:55:52.496Z,101259.97
2022-09-23T13:58:21.905Z,101259.81
2022-09-23T14:00:50.756Z,101263.91
2022-09-23T14:03:25.616Z,101259.59
2022-09-23T14:05:54.605Z,101256.34
2022-09-23T14:08:22.701Z,101253.63
2022-09-23T14:10:50.729Z,101246.41
2022-09-23T14:13:25.551Z,101241.09
2022-09-23T14:15:55.997Z,101246.56
2022-09-23T14:18:30.359Z,101248.13
2022-09-23T14:20:58.266Z,101243.28
2022-09-23T14:23:26.138Z,101240.53
2022-09-23T14:25:54.636Z,101242.09
2022-09-23T14:28:24.169Z,101234.72
2022-09-23T14:30:53.807Z,101229.28
2022-09-23T14:33:28.166Z,101238.13
2022-09-23T14:35:59.301Z,101238.00
2022-09-23T14:38:46.139Z,101236.47
2022-09-23T14:41:21.991Z,101236.19
2022-09-23T14:43:52.544Z,101232.31
2022-09-23T14:46:22.717Z,101236.72
2022-09-23T14:49:02.781Z,101235.69
2022-09-23T14:51:33.439Z,101234.66
2022-09-23T14:54:23.299Z,101241.16
2022-09-23T14:56:51.914Z,101231.53
2022-09-23T14:59:27.345Z,101235.16
2022-09-23T15:01:55.873Z,101222.25
2022-09-23T15:04:34.991Z,101218.81
2022-09-23T15:07:09.580Z,101225.16
2022-09-23T15:09:39.772Z,101222.34
2022-09-23T15:12:09.028Z,101223.34
2022-09-23T15:14:40.814Z,101217.72
2022-09-23T15:17:18.173Z,101221.31
2022-09-23T15:19:52.716Z,101219.09
2022-09-23T15:22:20.806Z,101219.03
2022-09-23T15:24:48.918Z,101212.69
2022-09-23T15:27:30.932Z,101212.53
2022-09-23T15:30:20.216Z,101208.59
2022-09-23T15:32:48.614Z,101203.41
2022-09-23T15:35:19.979Z,101207.88
2022-09-23T15:37:49.797Z,101206.16
2022-09-23T15:40:21.051Z,101212.97
2022-09-23T15:42:51.679Z,101212.09
2022-09-23T15:45:21.064Z,101210.72
2022-09-23T15:47:49.749Z,101208.44
2022-09-23T15:50:19.631Z,101211.38
2022-09-23T15:52:47.546Z,101205.03
2022-09-23T15:55:21.920Z,101213.88
2022-09-23T15:57:49.981Z,101214.47
2022-09-23T16:00:18.063Z,101210.69
2022-09-23T16:02:47.591Z,101216.25
2022-09-23T16:05:24.362Z,101211.03
2022-09-23T16:07:53.444Z,101199.75
2022-09-23T16:10:22.826Z,101201.25
2022-09-23T16:12:51.076Z,101203.63
2022-09-23T16:15:20.542Z,101197.81
2022-09-23T16:17:48.533Z,101191.50
2022-09-23T16:20:17.779Z,101197.06
2022-09-23T16:22:49.712Z,101198.28
2022-09-23T16:25:18.237Z,101191.66
2022-09-23T16:27:46.139Z,101190.00
2022-09-23T16:30:14.258Z,101190.63
2022-09-23T16:32:42.415Z,101186.47
2022-09-23T16:35:11.239Z,101182.84
2022-09-23T16:37:39.130Z,101184.00
2022-09-23T16:40:09.903Z,101180.72
2022-09-23T16:42:38.351Z,101183.56
2022-09-23T16:45:07.358Z,101188.16
2022-09-23T16:47:35.303Z,101183.34
2022-09-23T16:50:03.180Z,101186.00
2022-09-23T16:52:31.083Z,101182.31
2022-09-23T16:54:59.001Z,101188.53
2022-09-23T16:57:29.938Z,101186.75
2022-09-23T17:00:15.183Z,101192.03
2022-09-23T17:03:00.510Z,101191.22
2022-09-23T17:05:28.523Z,101190.97
2022-09-23T17:07:58.945Z,101188.44
2022-09-23T17:10:26.883Z,101195.69
2022-09-23T17:12:56.263Z,101189.72
2022-09-23T17:15:24.165Z,101191.59
2022-09-23T17:17:52.069Z,101183.50
2022-09-23T17:20:20.165Z,101192.47
2022-09-23T17:22:48.284Z,101191.22
2022-09-23T17:25:16.597Z,101193.44
2022-09-23T17:27:44.496Z,101188.38
2022-09-23T17:30:14.559Z,101190.94
2022-09-23T17:32:42.709Z,101191.34
2022-09-23T17:35:11.355Z,101185.59
2022-09-23T17:37:39.239Z,101187.84
2022-09-23T17:40:08.318Z,101186.75
2022-09-23T17:42:41.305Z,101180.63
2022-09-23T17:45:10.381Z,101174.47
2022-09-23T17:47:41.907Z,101180.81
2022-09-23T17:50:10.318Z,101181.06
2022-09-23T17:52:38.222Z,101177.50
2022-09-23T17:55:07.253Z,101182.34
2022-09-23T17:57:35.287Z,101183.13
2022-09-23T18:00:03.740Z,101183.53
2022-09-23T18:02:31.676Z,101189.03
2022-09-23T18:05:00.989Z,101182.19
2022-09-23T18:07:28.872Z,101189.91
2022-09-23T18:09:56.795Z,101185.78
2022-09-23T18:12:24.731Z,101188.94
2022-09-23T18:14:52.655Z,101191.75
2022-09-23T18:17:20.531Z,101190.97
2022-09-23T18:19:49.479Z,101188.63
2022-09-23T18:22:18.830Z,101191.16
2022-09-23T18:24:46.704Z,101186.13
2022-09-23T18:27:14.595Z,101200.50
2022-09-23T18:29:42.485Z,101195.34
2022-09-23T18:32:14.077Z,101190.88
2022-09-23T18:34:42.333Z,101193.78
2022-09-23T18:37:15.676Z,101195.63
2022-09-23T18:39:45.534Z,101189.47
2022-09-23T18:42:13.649Z,101191.03
2022-09-23T18:44:41.786Z,101192.03
2022-09-23T18:47:29.650Z,101191.34
2022-09-23T18:50:11.418Z,101194.94
2022-09-23T18:52:39.286Z,101188.63
2022-09-23T18:55:09.989Z,101192.03
2022-09-23T18:57:38.125Z,101187.66
2022-09-23T19:00:07.442Z,101193.28
2022-09-23T19:02:35.337Z,101185.97
2022-09-23T19:05:03.408Z,101188.63
2022-09-23T19:07:31.273Z,101179.25
2022-09-23T19:09:59.146Z,101179.53
2022-09-23T19:12:28.589Z,101180.53
2022-09-23T19:14:56.474Z,101180.84
2022-09-23T19:17:24.337Z,101184.13
2022-09-23T19:19:52.405Z,101182.66
2022-09-23T19:22:20.554Z,101182.72
2022-09-23T19:24:48.997Z,101177.31
2022-09-23T19:27:16.928Z,101175.91
2022-09-23T19:29:47.441Z,101174.28
2022-09-23T19:32:16.402Z,101173.00
2022-09-23T19:34:44.313Z,101171.63
2022-09-23T19:37:12.314Z,101162.25
2022-09-23T19:39:40.856Z,101162.84
2022-09-23T19:42:08.760Z,101169.75
2022-09-23T19:44:41.107Z,101170.78
2022-09-23T19:47:15.535Z,101179.41
2022-09-23T19:49:43.554Z,101167.03
2022-09-23T19:52:11.624Z,101159.44
2022-09-23T19:54:39.514Z,101167.34
2022-09-23T19:57:07.382Z,101164.19
2022-09-23T19:59:35.289Z,101161.63
2022-09-23T20:02:03.197Z,101164.53
2022-09-23T20:04:34.145Z,101165.53
2022-09-23T20:07:04.257Z,101155.97
2022-09-23T20:09:32.216Z,101162.97
2022-09-23T20:12:00.282Z,101155.50
2022-09-23T20:14:28.193Z,101148.31
2022-09-23T20:16:56.126Z,101150.84
2022-09-23T20:19:24.114Z,101149.97
2022-09-23T20:22:07.270Z,101145.53
2022-09-23T20:24:35.153Z,101147.16
2022-09-23T20:27:11.769Z,101142.16
2022-09-23T20:29:39.729Z,101145.63
2022-09-23T20:32:09.018Z,101141.47
2022-09-23T20:34:36.890Z,101133.72
2022-09-23T20:37:06.414Z,101133.31
2022-09-23T20:39:34.312Z,101130.41
2022-09-23T20:42:02.690Z,101128.94
2022-09-23T20:44:30.601Z,101123.81
2022-09-23T20:46:58.611Z,101120.38
2022-09-23T20:49:26.533Z,101125.31
2022-09-23T20:51:54.398Z,101124.16
2022-09-23T20:54:23.694Z,101127.00
2022-09-23T20:56:51.575Z,101125.66
2022-09-23T20:59:19.466Z,101121.38
2022-09-23T21:01:47.887Z,101124.59
2022-09-23T21:04:16.058Z,101117.84
2022-09-23T21:06:43.936Z,101116.28
2022-09-23T21:09:11.849Z,101120.16
2022-09-23T21:11:41.123Z,101109.31
2022-09-23T21:14:09.308Z,101111.63
2022-09-23T21:16:37.297Z,101108.66
2022-09-23T21:19:07.440Z,101111.78
2022-09-23T21:21:35.571Z,101109.34
2022-09-23T21:24:36.137Z,101102.22
2022-09-23T21:26:53.727Z,101106.75
2022-09-23T21:29:21.600Z,101102.63
2022-09-23T21:31:50.031Z,101103.91
2022-09-23T21:34:18.127Z,101104.78
2022-09-23T21:36:47.996Z,101107.38
2022-09-23T21:39:16.036Z,101105.34
2022-09-23T21:41:44.529Z,101109.50
2022-09-23T21:44:13.808Z,101107.50
2022-09-23T21:46:41.745Z,101101.50
2022-09-23T21:49:09.745Z,101107.38
2022-09-23T21:51:41.173Z,101110.13
2022-09-23T21:54:12.874Z,101109.81
2022-09-23T21:56:40.823Z,101108.50
2022-09-23T21:59:08.854Z,101104.31
2022-09-23T22:01:40.334Z,101100.28
2022-09-23T22:04:12.531Z,101101.44
2022-09-23T22:06:40.902Z,101104.16
2022-09-23T22:09:12.239Z,101104.69
2022-09-23T22:12:07.058Z,101099.84
2022-09-23T22:14:35.148Z,101106.44
2022-09-23T22:17:05.881Z,101097.97
2022-09-23T22:19:39.380Z,101098.66
2022-09-23T22:22:13.308Z,101103.25
2022-09-23T22:24:41.301Z,101114.25
2022-09-23T22:27:09.437Z,101109.44
2022-09-23T22:29:54.905Z,101112.75
2022-09-23T22:32:41.690Z,101116.34
2022-09-23T22:35:11.028Z,101109.59
2022-09-23T22:37:39.765Z,101108.00
2022-09-23T22:40:10.502Z,101106.97
2022-09-23T22:42:40.165Z,101109.50
2022-09-23T22:45:09.451Z,101104.34
2022-09-23T22:47:40.482Z,101103.94
2022-09-23T22:50:10.218Z,101107.84
2022-09-23T22:52:38.673Z,101107.16
2022-09-23T22:55:08.063Z,101108.13
2022-09-23T22:57:37.267Z,101108.59
2022-09-23T23:00:05.797Z,101104.19
2022-09-23T23:02:33.763Z,101102.94
2022-09-23T23:05:03.063Z,101102.94
2022-09-23T23:07:34.945Z,101108.09
2022-09-23T23:10:04.777Z,101108.09
2022-09-23T23:12:33.590Z,101108.69
2022-09-23T23:15:01.575Z,101106.16
2022-09-23T23:17:29.908Z,101105.03
2022-09-23T23:19:58.100Z,101106.72
2022-09-23T23:22:29.344Z,101110.19
2022-09-23T23:24:57.471Z,101102.91
2022-09-23T23:27:25.504Z,101109.47
2022-09-23T23:29:53.390Z,101108.19
2022-09-23T23:32:21.397Z,101100.72
2022-09-23T23:34:49.342Z,101100.03
2022-09-23T23:37:20.753Z,101101.88
2022-09-23T23:39:50.579Z,101097.75
2022-09-23T23:42:18.974Z,101091.00
2022-09-23T23:44:47.009Z,101100.88
2022-09-23T23:47:15.446Z,101101.31
2022-09-23T23:49:43.321Z,101095.16
2022-09-23T23:52:11.246Z,101100.03
2022-09-23T23:54:39.510Z,101102.75
2022-09-23T23:57:08.833Z,101093.44
2022-09-23T23:59:37.151Z,101093.00
